createdAt,value
2022-08-26T00:02:07.448Z,100048.91
2022-08-26T00:04:36.878Z,100046.24
2022-08-26T00:07:05.761Z,100042.22
2022-08-26T00:09:39.003Z,100041.22
2022-08-26T00:12:06.011Z,100040.07
2022-08-26T00:14:34.865Z,100036.09
2022-08-26T00:17:03.695Z,100036.12
2022-08-26T00:19:34.077Z,100031.78
2022-08-26T00:22:02.866Z,100032.78
2022-08-26T00:24:31.581Z,100034.64
2022-08-26T00:27:00.545Z,100035.19
2022-08-26T00:29:30.563Z,100030.34
2022-08-26T00:32:02.695Z,100031.85
2022-08-26T00:34:33.132Z,100025.49
2022-08-26T00:37:01.953Z,100031.34
2022-08-26T00:39:30.837Z,100028.83
2022-08-26T00:42:00.413Z,100030.67
2022-08-26T00:44:29.127Z,100032.89
2022-08-26T00:46:59.342Z,100030.87
2022-08-26T00:49:31.524Z,100028.88
2022-08-26T00:52:01.805Z,100028.55
2022-08-26T00:54:33.447Z,100027.83
2022-08-26T00:57:03.897Z,100025.02
2022-08-26T00:59:34.711Z,100029.05
2022-08-26T01:02:04.888Z,100023.91
2022-08-26T01:04:35.653Z,100020.06
2022-08-26T01:07:06.272Z,100020.39
2022-08-26T01:09:35.160Z,100019.06
2022-08-26T01:12:05.710Z,100013.20
2022-08-26T01:14:36.710Z,100009.18
2022-08-26T01:17:07.252Z,100012.70
2022-08-26T01:19:40.438Z,100013.70
2022-08-26T01:22:13.743Z,100008.34
2022-08-26T01:24:42.731Z,100009.35
2022-08-26T01:27:13.403Z,100012.53
2022-08-26T01:29:43.995Z,100010.89
2022-08-26T01:32:14.776Z,100011.56
2022-08-26T01:34:43.866Z,100004.88
2022-08-26T01:37:17.114Z,100013.91
2022-08-26T01:39:47.589Z,100011.40
2022-08-26T01:42:18.180Z,100012.73
2022-08-26T01:44:48.720Z,100011.40
2022-08-26T01:47:18.359Z,100013.58
2022-08-26T01:49:48.989Z,100015.75
2022-08-26T01:52:20.852Z,100013.91
2022-08-26T01:54:51.549Z,100016.92
2022-08-26T01:57:21.259Z,100019.44
2022-08-26T01:59:50.703Z,100022.98
2022-08-26T02:02:19.478Z,100017.42
2022-08-26T02:04:49.941Z,100013.77
2022-08-26T02:07:19.972Z,100020.63
2022-08-26T02:09:50.463Z,100020.97
2022-08-26T02:12:20.642Z,100023.28
2022-08-26T02:14:52.063Z,100022.28
2022-08-26T02:17:23.038Z,100016.95
2022-08-26T02:19:51.869Z,100017.78
2022-08-26T02:22:21.844Z,100016.45
2022-08-26T02:24:52.829Z,100011.42
2022-08-26T02:27:32.452Z,100007.08
2022-08-26T02:30:00.640Z,100006.57
2022-08-26T02:32:30.073Z,100004.23
2022-08-26T02:34:58.786Z,100007.73
2022-08-26T02:37:29.020Z,100005.06
2022-08-26T02:39:57.767Z,100005.05
2022-08-26T02:42:26.557Z,100004.89
2022-08-26T02:44:55.580Z,100013.22
2022-08-26T02:47:25.443Z,100013.92
2022-08-26T02:49:55.775Z,100005.89
2022-08-26T02:52:25.376Z,100006.88
2022-08-26T02:54:54.189Z,100006.55
2022-08-26T02:57:24.245Z,100008.21
2022-08-26T02:59:53.068Z,100003.19
2022-08-26T03:02:21.918Z,99998.50
2022-08-26T03:04:57.326Z,99996.33
2022-08-26T03:07:22.410Z,99994.48
2022-08-26T03:09:51.813Z,99991.81
2022-08-26T03:12:20.702Z,99991.97
2022-08-26T03:14:49.682Z,99989.46
2022-08-26T03:17:19.101Z,99994.00
2022-08-26T03:19:51.758Z,99994.16
2022-08-26T03:22:18.484Z,99996.83
2022-08-26T03:24:49.113Z,99989.47
2022-08-26T03:27:19.029Z,99992.31
2022-08-26T03:30:06.031Z,99993.30
2022-08-26T03:32:34.978Z,99994.80
2022-08-26T03:35:03.765Z,99990.94
2022-08-26T03:37:32.620Z,99991.61
2022-08-26T03:40:01.482Z,99992.77
2022-08-26T03:42:31.361Z,99995.13
2022-08-26T03:45:01.174Z,100002.83
2022-08-26T03:47:29.895Z,99999.66
2022-08-26T03:49:59.342Z,99991.61
2022-08-26T03:52:28.852Z,99989.44
2022-08-26T03:54:57.763Z,99988.13
2022-08-26T03:57:27.373Z,99990.95
2022-08-26T03:59:56.622Z,99985.45
2022-08-26T04:02:25.776Z,99987.45
2022-08-26T04:04:54.843Z,99981.58
2022-08-26T04:07:26.479Z,99982.76
2022-08-26T04:09:56.232Z,99983.44
2022-08-26T04:12:25.557Z,99989.28
2022-08-26T04:14:57.159Z,99983.09
2022-08-26T04:17:26.214Z,99983.09
2022-08-26T04:19:55.011Z,99988.45
2022-08-26T04:22:24.037Z,99985.95
2022-08-26T04:24:53.847Z,99983.44
2022-08-26T04:27:22.639Z,99989.10
2022-08-26T04:29:54.775Z,99985.42
2022-08-26T04:32:21.759Z,99982.77
2022-08-26T04:34:50.453Z,99988.78
2022-08-26T04:37:20.841Z,99992.98
2022-08-26T04:39:53.947Z,99989.14
2022-08-26T04:42:22.872Z,99991.47
2022-08-26T04:44:53.166Z,99986.80
2022-08-26T04:47:21.946Z,99988.15
2022-08-26T04:49:52.306Z,99989.16
2022-08-26T04:52:21.106Z,99987.63
2022-08-26T04:54:49.866Z,99982.77
2022-08-26T04:57:18.683Z,99989.09
2022-08-26T04:59:47.941Z,99987.40
2022-08-26T05:02:18.370Z,99985.00
2022-08-26T05:04:47.769Z,99978.22
2022-08-26T05:07:18.168Z,99983.73
2022-08-26T05:09:48.062Z,99982.11
2022-08-26T05:12:16.901Z,99982.65
2022-08-26T05:14:47.273Z,99989.89
2022-08-26T05:17:16.023Z,99987.44
2022-08-26T05:19:45.569Z,99990.55
2022-08-26T05:22:15.219Z,99995.58
2022-08-26T05:24:46.533Z,99992.67
2022-08-26T05:27:15.322Z,99991.77
2022-08-26T05:29:44.362Z,99993.35
2022-08-26T05:32:13.357Z,99989.69
2022-08-26T05:34:43.117Z,99991.20
2022-08-26T05:37:13.733Z,99992.22
2022-08-26T05:39:43.600Z,99991.30
2022-08-26T05:42:12.853Z,99989.91
2022-08-26T05:44:55.719Z,99990.17
2022-08-26T05:47:12.035Z,99988.09
2022-08-26T05:49:49.256Z,99992.07
2022-08-26T05:52:12.119Z,99995.21
2022-08-26T05:54:41.538Z,99989.63
2022-08-26T05:57:12.131Z,99989.34
2022-08-26T05:59:40.894Z,99987.38
2022-08-26T06:02:10.733Z,99979.73
2022-08-26T06:04:41.181Z,99980.54
2022-08-26T06:07:09.971Z,99975.12
2022-08-26T06:09:40.702Z,99972.88
2022-08-26T06:12:09.788Z,99972.77
2022-08-26T06:14:38.588Z,99973.77
2022-08-26T06:17:09.528Z,99973.58
2022-08-26T06:19:41.332Z,99975.52
2022-08-26T06:22:11.410Z,99981.38
2022-08-26T06:24:59.226Z,99980.86
2022-08-26T06:27:32.593Z,99984.08
2022-08-26T06:29:59.179Z,99986.08
2022-08-26T06:32:27.900Z,99986.13
2022-08-26T06:34:56.608Z,99978.55
2022-08-26T06:37:27.051Z,99979.77
2022-08-26T06:39:55.788Z,99977.43
2022-08-26T06:42:26.078Z,99986.98
2022-08-26T06:44:55.382Z,99981.50
2022-08-26T06:47:24.094Z,99975.86
2022-08-26T06:49:53.684Z,99978.86
2022-08-26T06:52:24.596Z,99979.27
2022-08-26T06:54:53.821Z,99977.66
2022-08-26T06:57:23.090Z,99976.96
2022-08-26T06:59:51.796Z,99978.98
2022-08-26T07:02:20.832Z,99979.19
2022-08-26T07:04:51.223Z,99973.70
2022-08-26T07:07:21.960Z,99978.52
2022-08-26T07:09:52.635Z,99980.78
2022-08-26T07:12:22.012Z,99975.73
2022-08-26T07:14:52.163Z,99980.96
2022-08-26T07:17:24.992Z,99986.45
2022-08-26T07:19:53.632Z,99983.30
2022-08-26T07:22:22.484Z,99985.77
2022-08-26T07:24:52.867Z,99979.41
2022-08-26T07:27:21.704Z,99974.50
2022-08-26T07:29:50.400Z,99976.52
2022-08-26T07:32:20.522Z,99981.94
2022-08-26T07:34:51.034Z,99977.73
2022-08-26T07:37:20.212Z,99980.58
2022-08-26T07:39:49.018Z,99981.45
2022-08-26T07:42:18.951Z,99971.37
2022-08-26T07:44:48.345Z,99972.09
2022-08-26T07:47:25.452Z,99974.05
2022-08-26T07:49:48.672Z,99970.82
2022-08-26T07:52:20.702Z,99968.41
2022-08-26T07:54:49.470Z,99965.52
2022-08-26T07:57:19.091Z,99960.33
2022-08-26T07:59:47.877Z,99960.42
2022-08-26T08:02:16.641Z,99964.69
2022-08-26T08:04:45.466Z,99964.95
2022-08-26T08:07:14.801Z,99972.13
2022-08-26T08:09:43.730Z,99970.70
2022-08-26T08:12:14.051Z,99970.31
2022-08-26T08:14:44.707Z,99971.55
2022-08-26T08:17:14.926Z,99976.66
2022-08-26T08:19:44.349Z,99975.59
2022-08-26T08:22:17.902Z,99973.46
2022-08-26T08:24:43.591Z,99973.02
2022-08-26T08:27:12.695Z,99969.69
2022-08-26T08:29:43.508Z,99968.63
2022-08-26T08:32:15.454Z,99965.19
2022-08-26T08:37:12.518Z,99962.00
2022-08-26T08:39:41.864Z,99958.26
2022-08-26T08:42:29.344Z,99957.34
2022-08-26T08:44:59.577Z,99957.43
2022-08-26T08:47:36.170Z,99954.59
2022-08-26T08:50:09.249Z,99952.16
2022-08-26T08:52:39.204Z,99945.23
2022-08-26T08:55:11.095Z,99946.98
2022-08-26T08:57:50.196Z,99949.68
2022-08-26T09:00:30.275Z,99950.91
2022-08-26T09:02:54.429Z,99943.63
2022-08-26T09:05:28.708Z,99941.56
2022-08-26T09:08:01.940Z,99938.05
2022-08-26T09:10:35.236Z,99938.16
2022-08-26T09:13:06.691Z,99940.01
2022-08-26T09:15:36.972Z,99928.61
2022-08-26T09:18:16.348Z,99936.48
2022-08-26T09:20:51.118Z,99932.45
2022-08-26T09:23:20.346Z,99924.95
2022-08-26T09:25:57.200Z,99929.30
2022-08-26T09:28:30.113Z,99934.23
2022-08-26T09:31:01.514Z,99930.92
2022-08-26T09:33:31.745Z,99934.81
2022-08-26T09:36:14.699Z,99930.82
2022-08-26T09:38:44.654Z,99932.07
2022-08-26T09:41:26.988Z,99929.73
2022-08-26T09:44:14.712Z,99926.58
2022-08-26T09:46:43.977Z,99919.94
2022-08-26T09:49:20.339Z,99919.14
2022-08-26T09:51:50.063Z,99922.05
2022-08-26T09:54:30.482Z,99916.30
2022-08-26T09:56:58.401Z,99917.10
2022-08-26T09:59:30.757Z,99914.84
2022-08-26T10:04:31.242Z,99904.29
2022-08-26T10:07:01.590Z,99900.09
2022-08-26T10:09:31.924Z,99905.38
2022-08-26T10:12:03.191Z,99900.50
2022-08-26T10:14:38.211Z,99897.38
2022-08-26T10:17:11.389Z,99895.88
2022-08-26T10:19:56.537Z,99897.00
2022-08-26T10:22:16.221Z,99896.23
2022-08-26T10:24:55.222Z,99897.23
2022-08-26T10:27:40.489Z,99890.89
2022-08-26T10:30:11.932Z,99898.67
2022-08-26T10:32:42.138Z,99899.64
2022-08-26T10:35:12.227Z,99890.89
2022-08-26T10:37:42.456Z,99880.52
2022-08-26T10:40:15.871Z,99882.32
2022-08-26T10:42:46.265Z,99879.74
2022-08-26T10:45:17.130Z,99880.63
2022-08-26T10:47:50.217Z,99876.85
2022-08-26T10:50:19.912Z,99883.70
2022-08-26T10:53:00.264Z,99880.93
2022-08-26T10:55:34.846Z,99874.59
2022-08-26T10:58:09.087Z,99871.00
2022-08-26T11:00:58.060Z,99864.64
2022-08-26T11:03:28.529Z,99871.18
2022-08-26T11:06:15.749Z,99868.52
2022-08-26T11:08:54.778Z,99866.11
2022-08-26T11:11:45.391Z,99865.27
2022-08-26T11:14:29.251Z,99862.36
2022-08-26T11:16:58.106Z,99863.16
2022-08-26T11:19:59.400Z,99852.24
2022-08-26T11:22:26.902Z,99857.09
2022-08-26T11:24:57.288Z,99850.52
2022-08-26T11:27:40.192Z,99847.59
2022-08-26T11:30:10.770Z,99849.59
2022-08-26T11:32:41.077Z,99842.16
2022-08-26T11:35:20.766Z,99839.38
2022-08-26T11:38:08.456Z,99834.81
2022-08-26T11:40:39.320Z,99826.42
2022-08-26T11:43:12.326Z,99826.31
2022-08-26T11:45:42.638Z,99820.00
2022-08-26T11:48:19.544Z,99827.91
2022-08-26T11:51:00.678Z,99826.28
2022-08-26T11:53:32.608Z,99823.98
2022-08-26T11:56:04.029Z,99825.18
2022-08-26T11:58:32.886Z,99814.38
2022-08-26T12:01:05.663Z,99819.28
2022-08-26T12:03:40.633Z,99806.86
2022-08-26T12:06:28.989Z,99806.69
2022-08-26T12:08:59.850Z,99810.78
2022-08-26T12:11:30.394Z,99803.09
2022-08-26T12:14:00.679Z,99804.19
2022-08-26T12:16:31.077Z,99809.59
2022-08-26T12:19:00.480Z,99803.02
2022-08-26T12:21:31.482Z,99793.44
2022-08-26T12:24:01.536Z,99797.06
2022-08-26T12:26:34.800Z,99794.38
2022-08-26T12:29:10.002Z,99794.70
2022-08-26T12:31:38.668Z,99798.47
2022-08-26T12:34:15.893Z,99796.70
2022-08-26T12:36:41.444Z,99791.70
2022-08-26T12:39:12.929Z,99784.13
2022-08-26T12:41:43.246Z,99779.81
2022-08-26T12:44:13.471Z,99769.42
2022-08-26T12:46:44.713Z,99773.34
2022-08-26T12:49:16.824Z,99773.33
2022-08-26T12:51:47.139Z,99773.83
2022-08-26T12:54:17.901Z,99770.83
2022-08-26T12:56:47.108Z,99778.45
2022-08-26T12:59:25.318Z,99767.95
2022-08-26T13:01:54.851Z,99763.55
2022-08-26T13:04:43.266Z,99757.00
2022-08-26T13:07:16.561Z,99757.25
2022-08-26T13:09:45.422Z,99751.37
2022-08-26T13:12:15.779Z,99748.05
2022-08-26T13:14:44.512Z,99750.69
2022-08-26T13:17:13.530Z,99746.38
2022-08-26T13:19:42.350Z,99743.58
2022-08-26T13:22:12.549Z,99737.27
2022-08-26T13:24:43.070Z,99731.52
2022-08-26T13:27:13.434Z,99734.49
2022-08-26T13:29:42.598Z,99734.45
2022-08-26T13:32:11.478Z,99728.73
2022-08-26T13:34:40.281Z,99715.90
2022-08-26T13:37:09.030Z,99709.07
2022-08-26T13:39:38.254Z,99712.06
2022-08-26T13:42:07.124Z,99701.44
2022-08-26T13:44:37.552Z,99704.95
2022-08-26T13:47:06.810Z,99702.69
2022-08-26T13:49:35.627Z,99694.83
2022-08-26T13:52:04.589Z,99699.82
2022-08-26T13:54:33.404Z,99694.63
2022-08-26T13:57:02.330Z,99688.86
2022-08-26T13:59:31.144Z,99679.53
2022-08-26T14:02:01.832Z,99681.73
2022-08-26T14:04:30.580Z,99679.54
2022-08-26T14:06:59.321Z,99681.74
2022-08-26T14:09:28.135Z,99683.64
2022-08-26T14:11:58.137Z,99675.95
2022-08-26T14:14:27.255Z,99671.60
2022-08-26T14:16:59.332Z,99674.61
2022-08-26T14:19:27.917Z,99676.52
2022-08-26T14:21:56.721Z,99673.23
2022-08-26T14:24:25.507Z,99671.53
2022-08-26T14:26:54.297Z,99671.27
2022-08-26T14:29:23.190Z,99676.73
2022-08-26T14:31:52.288Z,99677.28
2022-08-26T14:34:21.150Z,99673.58
2022-08-26T14:36:49.965Z,99684.43
2022-08-26T14:39:18.857Z,99687.31
2022-08-26T14:41:53.916Z,99684.05
2022-08-26T14:44:20.102Z,99680.45
2022-08-26T14:46:50.179Z,99674.20
2022-08-26T14:49:20.062Z,99675.75
2022-08-26T14:51:48.946Z,99674.42
2022-08-26T14:54:18.736Z,99664.80
2022-08-26T14:56:51.852Z,99669.39
2022-08-26T14:59:22.168Z,99666.91
2022-08-26T15:01:52.210Z,99665.02
2022-08-26T15:04:21.873Z,99663.99
2022-08-26T15:06:51.194Z,99656.16
2022-08-26T15:09:20.067Z,99656.54
2022-08-26T15:11:48.958Z,99654.34
2022-08-26T15:14:20.121Z,99661.08
2022-08-26T15:16:50.561Z,99651.39
2022-08-26T15:19:20.167Z,99656.38
2022-08-26T15:21:49.161Z,99656.13
2022-08-26T15:24:19.486Z,99656.67
2022-08-26T15:26:48.886Z,99654.72
2022-08-26T15:29:18.089Z,99648.26
2022-08-26T15:31:47.953Z,99648.08
2022-08-26T15:34:17.331Z,99644.59
2022-08-26T15:36:47.795Z,99641.30
2022-08-26T15:39:17.546Z,99639.23
2022-08-26T15:41:47.784Z,99638.48
2022-08-26T15:44:20.696Z,99640.20
2022-08-26T15:46:51.772Z,99636.99
2022-08-26T15:49:20.893Z,99641.48
2022-08-26T15:51:53.163Z,99638.39
2022-08-26T15:54:23.567Z,99629.61
2022-08-26T15:56:53.199Z,99629.93
2022-08-26T15:59:23.195Z,99628.69
2022-08-26T16:01:52.671Z,99626.01
2022-08-26T16:04:21.819Z,99625.69
2022-08-26T16:06:51.699Z,99620.87
2022-08-26T16:09:24.290Z,99622.82
2022-08-26T16:11:54.229Z,99621.99
2022-08-26T16:14:23.632Z,99621.84
2022-08-26T16:16:52.526Z,99620.70
2022-08-26T16:19:21.518Z,99617.69
2022-08-26T16:21:51.489Z,99619.47
2022-08-26T16:24:28.469Z,99613.89
2022-08-26T16:26:54.468Z,99611.13
2022-08-26T16:29:23.978Z,99608.36
2022-08-26T16:31:54.676Z,99609.44
2022-08-26T16:34:23.499Z,99618.30
2022-08-26T16:36:53.011Z,99612.67
2022-08-26T16:39:21.746Z,99617.85
2022-08-26T16:41:50.901Z,99614.29
2022-08-26T16:44:19.827Z,99614.94
2022-08-26T16:46:48.935Z,99615.29
2022-08-26T16:49:17.754Z,99609.69
2022-08-26T16:51:46.869Z,99607.20
2022-08-26T16:54:15.728Z,99605.89
2022-08-26T16:56:44.618Z,99606.64
2022-08-26T16:59:13.611Z,99616.53
2022-08-26T17:01:42.396Z,99605.86
2022-08-26T17:04:11.367Z,99602.24
2022-08-26T17:06:41.310Z,99606.58
2022-08-26T17:09:10.134Z,99609.92
2022-08-26T17:11:39.173Z,99610.81
2022-08-26T17:14:08.100Z,99614.92
2022-08-26T17:16:36.979Z,99620.48
2022-08-26T17:19:07.389Z,99621.72
2022-08-26T17:21:36.797Z,99621.27
2022-08-26T17:24:06.322Z,99627.67
2022-08-26T17:26:36.184Z,99628.34
2022-08-26T17:29:07.326Z,99630.98
2022-08-26T17:31:36.037Z,99619.61
2022-08-26T17:34:05.350Z,99622.02
2022-08-26T17:36:34.241Z,99622.59
2022-08-26T17:39:03.098Z,99616.69
2022-08-26T17:41:31.986Z,99607.30
2022-08-26T17:44:00.700Z,99611.92
2022-08-26T17:46:33.243Z,99606.11
2022-08-26T17:48:59.951Z,99606.77
2022-08-26T17:51:28.826Z,99610.35
2022-08-26T17:53:57.836Z,99609.05
2022-08-26T17:56:28.657Z,99613.41
2022-08-26T17:59:02.272Z,99616.90
2022-08-26T18:01:29.275Z,99615.55
2022-08-26T18:04:00.432Z,99618.58
2022-08-26T18:06:28.314Z,99616.14
2022-08-26T18:08:57.668Z,99623.42
2022-08-26T18:11:27.154Z,99617.43
2022-08-26T18:13:55.877Z,99620.80
2022-08-26T18:16:24.867Z,99618.20
2022-08-26T18:18:53.959Z,99616.05
2022-08-26T18:21:24.146Z,99619.74
2022-08-26T18:23:53.532Z,99614.06
2022-08-26T18:26:23.739Z,99615.34
2022-08-26T18:28:52.523Z,99616.92
2022-08-26T18:31:21.552Z,99619.55
2022-08-26T18:33:50.391Z,99622.43
2022-08-26T18:36:20.609Z,99623.27
2022-08-26T18:38:50.281Z,99631.07
2022-08-26T18:41:20.912Z,99626.91
2022-08-26T18:43:50.660Z,99627.14
2022-08-26T18:46:20.347Z,99636.16
2022-08-26T18:48:51.134Z,99632.61
2022-08-26T18:51:21.125Z,99632.11
2022-08-26T18:53:49.912Z,99642.27
2022-08-26T18:56:19.121Z,99645.69
2022-08-26T18:58:48.108Z,99649.36
2022-08-26T19:01:18.008Z,99651.31
2022-08-26T19:03:47.501Z,99653.82
2022-08-26T19:06:17.703Z,99660.80
2022-08-26T19:08:49.933Z,99669.71
2022-08-26T19:11:18.121Z,99667.09
2022-08-26T19:13:48.799Z,99670.39
2022-08-26T19:16:20.146Z,99670.94
2022-08-26T19:18:50.134Z,99670.15
2022-08-26T19:21:19.426Z,99672.64
2022-08-26T19:23:48.284Z,99674.90
2022-08-26T19:26:17.271Z,99678.14
2022-08-26T19:28:45.973Z,99679.24
2022-08-26T19:31:15.329Z,99684.80
2022-08-26T19:33:45.347Z,99680.71
2022-08-26T19:36:15.649Z,99689.88
2022-08-26T19:38:44.973Z,99694.05
2022-08-26T19:41:14.767Z,99692.30
2022-08-26T19:43:46.237Z,99691.85
2022-08-26T19:46:17.446Z,99686.86
2022-08-26T19:48:46.902Z,99695.51
2022-08-26T19:51:16.783Z,99695.38
2022-08-26T19:53:46.768Z,99697.50
2022-08-26T19:56:17.251Z,99700.02
2022-08-26T19:58:46.318Z,99697.14
2022-08-26T20:01:15.844Z,99690.09
2022-08-26T20:03:45.162Z,99691.05
2022-08-26T20:06:15.048Z,99688.28
2022-08-26T20:08:44.304Z,99679.51
2022-08-26T20:11:14.571Z,99677.13
2022-08-26T20:13:43.524Z,99679.50
2022-08-26T20:16:12.478Z,99675.09
2022-08-26T20:18:59.548Z,99680.06
2022-08-26T20:21:29.516Z,99689.66
2022-08-26T20:24:01.552Z,99691.32
2022-08-26T20:26:31.675Z,99685.58
2022-08-26T20:29:00.675Z,99679.88
2022-08-26T20:31:29.947Z,99681.97
2022-08-26T20:34:00.198Z,99691.94
2022-08-26T20:36:29.791Z,99691.47
2022-08-26T20:38:58.707Z,99693.03
2022-08-26T20:41:28.714Z,99696.09
2022-08-26T20:43:57.749Z,99693.96
2022-08-26T20:46:28.401Z,99708.78
2022-08-26T20:48:58.252Z,99700.92
2022-08-26T20:51:27.155Z,99707.62
2022-08-26T20:53:56.038Z,99706.66
2022-08-26T20:56:25.250Z,99710.67
2022-08-26T20:58:55.562Z,99711.36
2022-08-26T21:01:26.146Z,99725.38
2022-08-26T21:03:56.981Z,99727.55
2022-08-26T21:06:25.924Z,99718.25
2022-08-26T21:08:55.507Z,99706.09
2022-08-26T21:11:25.960Z,99696.38
2022-08-26T21:14:07.120Z,99705.78
2022-08-26T21:16:25.315Z,99705.27
2022-08-26T21:18:54.373Z,99708.93
2022-08-26T21:21:25.175Z,99705.59
2022-08-26T21:23:54.717Z,99698.17
2022-08-26T21:26:23.608Z,99693.12
2022-08-26T21:28:52.834Z,99695.67
2022-08-26T21:31:23.538Z,99698.03
2022-08-26T21:33:52.846Z,99694.33
2022-08-26T21:36:21.635Z,99699.19
2022-08-26T21:38:50.419Z,99695.09
2022-08-26T21:41:22.225Z,99683.86
2022-08-26T21:43:53.838Z,99684.15
2022-08-26T21:46:25.798Z,99688.09
2022-08-26T21:48:59.378Z,99681.06
2022-08-26T21:51:29.827Z,99683.20
2022-08-26T21:53:59.462Z,99677.50
2022-08-26T21:56:29.333Z,99672.78
2022-08-26T21:58:58.402Z,99671.05
2022-08-26T22:01:29.537Z,99662.27
2022-08-26T22:03:58.951Z,99659.44
2022-08-26T22:06:29.642Z,99665.33
2022-08-26T22:08:58.883Z,99666.88
2022-08-26T22:11:28.210Z,99660.03
2022-08-26T22:13:56.997Z,99654.58
2022-08-26T22:16:28.190Z,99652.38
2022-08-26T22:18:57.295Z,99653.62
2022-08-26T22:21:28.298Z,99645.44
2022-08-26T22:23:58.631Z,99649.41
2022-08-26T22:26:30.256Z,99642.44
2022-08-26T22:28:59.787Z,99647.61
2022-08-26T22:31:37.875Z,99652.66
2022-08-26T22:34:01.441Z,99651.98
2022-08-26T22:36:31.172Z,99643.59
2022-08-26T22:38:59.972Z,99648.63
2022-08-26T22:41:28.852Z,99647.26
2022-08-26T22:43:59.148Z,99652.29
2022-08-26T22:46:27.969Z,99652.14
2022-08-26T22:48:56.856Z,99648.30
2022-08-26T22:51:25.679Z,99646.14
2022-08-26T22:53:54.422Z,99642.18
2022-08-26T22:56:24.452Z,99645.20
2022-08-26T22:58:53.187Z,99652.91
2022-08-26T23:01:22.521Z,99648.10
2022-08-26T23:03:51.537Z,99654.29
2022-08-26T23:06:20.365Z,99648.10
2022-08-26T23:08:49.547Z,99643.09
2022-08-26T23:11:19.233Z,99644.94
2022-08-26T23:13:48.023Z,99646.14
2022-08-26T23:16:16.859Z,99647.66
2022-08-26T23:18:45.809Z,99645.66
2022-08-26T23:21:15.105Z,99645.16
2022-08-26T23:23:45.541Z,99650.53
2022-08-26T23:26:17.552Z,99649.54
2022-08-26T23:28:44.750Z,99651.55
2022-08-26T23:31:14.505Z,99651.09
2022-08-26T23:34:00.966Z,99649.93
2022-08-26T23:36:31.395Z,99651.44
2022-08-26T23:39:01.933Z,99642.94
2022-08-26T23:41:30.794Z,99641.42
2022-08-26T23:44:03.421Z,99639.59
2022-08-26T23:46:30.154Z,99641.61
2022-08-26T23:48:59.071Z,99642.78
2022-08-26T23:51:46.047Z,99640.95
2022-08-26T23:54:15.707Z,99637.32
2022-08-26T23:56:44.832Z,99641.35
2022-08-26T23:59:14.746Z,99640.87
